Time;durP1;ratioP1;P1;durP2;ratioP2;P2;SDS_P1;SDS_P2;PMS_P1;PMS_P2;Temp;Humidity;BMP_temperature;BMP_pressure;BME280_temperature;BME280_humidity;BME280_pressure;Samples;Min_cycle;Max_cycle;Signal;HPM_P1;HPM_P2
2024/05/03 00:02:24;;;;;;;46.60;30.95;;;17.10;90.40;;;;;;5374219;26;20019;-77
2024/05/03 00:04:52;;;;;;;52.40;32.15;;;16.90;90.60;;;;;;5364002;26;20409;-77
2024/05/03 00:07:19;;;;;;;54.95;33.10;;;16.80;90.90;;;;;;5345412;26;20001;-77
2024/05/03 00:09:46;;;;;;;62.60;36.30;;;16.70;91.30;;;;;;5345739;26;20012;-77
2024/05/03 00:12:13;;;;;;;60.92;39.50;;;16.50;91.40;;;;;;5347593;26;20009;-77
2024/05/03 00:14:43;;;;;;;62.63;38.90;;;16.30;91.70;;;;;;5347610;26;19996;-77
2024/05/03 00:17:10;;;;;;;67.90;39.08;;;16.20;91.90;;;;;;5345443;26;20000;-77
2024/05/03 00:19:37;;;;;;;69.20;41.03;;;16.00;92.20;;;;;;5345658;26;20029;-77
2024/05/03 00:22:04;;;;;;;69.70;39.40;;;15.80;92.60;;;;;;5345269;26;20319;-77
2024/05/03 00:24:31;;;;;;;81.65;44.13;;;15.70;92.80;;;;;;5347333;26;20454;-77
2024/05/03 00:26:58;;;;;;;75.40;39.25;;;15.60;92.90;;;;;;5345479;26;20001;-77
2024/05/03 00:29:25;;;;;;;75.95;40.60;;;15.40;93.30;;;;;;5316916;26;20334;-77
2024/05/03 00:31:52;;;;;;;74.65;42.38;;;15.30;93.60;;;;;;5347303;26;19997;-77
2024/05/03 00:34:19;;;;;;;76.38;44.20;;;15.20;93.90;;;;;;5346935;26;20013;-77
2024/05/03 00:36:46;;;;;;;83.22;43.15;;;15.10;94.30;;;;;;5345226;26;20015;-77
2024/05/03 00:39:13;;;;;;;77.75;45.00;;;15.00;94.70;;;;;;5345263;26;20435;-77
2024/05/03 00:41:40;;;;;;;81.43;44.55;;;14.90;94.90;;;;;;5347456;26;20412;-77
2024/05/03 00:44:07;;;;;;;78.53;43.45;;;14.80;95.30;;;;;;5345275;26;20008;-77
2024/05/03 00:46:34;;;;;;;88.03;47.28;;;14.70;95.80;;;;;;5346984;26;20001;-77
2024/05/03 00:49:02;;;;;;;81.13;43.40;;;14.70;96.20;;;;;;5345053;26;20016;-77
2024/05/03 00:51:30;;;;;;;71.03;38.80;;;14.60;96.50;;;;;;5346178;26;19996;-77
2024/05/03 00:53:57;;;;;;;89.82;44.42;;;14.50;97.00;;;;;;5344359;26;20001;-77
2024/05/03 00:56:24;;;;;;;88.72;44.85;;;14.50;97.70;;;;;;5346602;26;20417;-77
2024/05/03 00:58:51;;;;;;;84.72;44.15;;;14.50;98.10;;;;;;5374191;26;20328;-77
2024/05/03 01:01:19;;;;;;;81.78;42.92;;;14.40;98.70;;;;;;5344713;26;20001;-77
2024/05/03 01:03:46;;;;;;;89.15;46.63;;;14.40;98.70;;;;;;5373759;26;20011;-77
2024/05/03 01:06:14;;;;;;;89.70;45.03;;;14.30;98.80;;;;;;5344550;26;19997;-77
2024/05/03 01:08:41;;;;;;;89.53;46.83;;;14.20;99.10;;;;;;5344957;26;20029;-77
2024/05/03 01:11:09;;;;;;;88.93;42.33;;;14.20;99.50;;;;;;5344674;26;20001;-77
2024/05/03 01:13:36;;;;;;;86.13;45.63;;;14.10;99.70;;;;;;5346567;26;20099;-77
2024/05/03 01:16:03;;;;;;;106.30;52.85;;;14.10;99.90;;;;;;5344946;26;20007;-77
2024/05/03 01:18:30;;;;;;;107.25;50.67;;;14.10;99.90;;;;;;5346749;26;20074;-77
2024/05/03 01:20:58;;;;;;;89.78;48.97;;;14.00;99.90;;;;;;5374142;26;20008;-77
2024/05/03 01:23:25;;;;;;;95.25;50.90;;;14.00;99.90;;;;;;5344908;26;20048;-77
2024/05/03 01:25:52;;;;;;;97.38;48.08;;;14.00;99.90;;;;;;5344870;26;20004;-77
2024/05/03 01:28:19;;;;;;;102.97;49.72;;;13.90;99.90;;;;;;5344671;26;20052;-77
2024/05/03 01:30:46;;;;;;;91.40;48.90;;;13.90;99.90;;;;;;5316226;26;20323;-77
2024/05/03 01:33:13;;;;;;;93.80;46.83;;;13.90;99.90;;;;;;5373595;26;20000;-77
2024/05/03 01:35:42;;;;;;;94.47;47.45;;;13.90;99.90;;;;;;5346345;26;20295;-77
2024/05/03 01:38:13;;;;;;;107.45;52.92;;;13.80;99.90;;;;;;5345904;26;20080;-77
2024/05/03 01:40:41;;;;;;;78.38;40.40;;;13.80;99.90;;;;;;5344477;26;20001;-77
2024/05/03 01:43:11;;;;;;;93.97;45.70;;;13.80;99.90;;;;;;5344010;26;20326;-77
2024/05/03 01:45:38;;;;;;;91.88;49.03;;;13.80;99.90;;;;;;5346199;26;20027;-77
2024/05/03 01:48:06;;;;;;;101.47;49.90;;;13.70;99.90;;;;;;5344278;26;20047;-77
2024/05/03 01:50:33;;;;;;;103.55;50.38;;;13.70;99.90;;;;;;5344301;26;20466;-77
2024/05/03 01:53:00;;;;;;;108.38;50.65;;;13.70;99.90;;;;;;5344195;26;20077;-77
2024/05/03 01:55:27;;;;;;;103.70;49.05;;;13.70;99.90;;;;;;5373428;26;20442;-77
2024/05/03 01:57:57;;;;;;;93.88;45.85;;;13.70;99.90;;;;;;5344429;26;20074;-77
2024/05/03 02:00:24;;;;;;;100.25;47.47;;;13.70;99.90;;;;;;5346023;26;20008;-77
2024/05/03 02:02:52;;;;;;;104.05;47.50;;;13.70;99.90;;;;;;5345440;26;20457;-77
2024/05/03 02:05:19;;;;;;;106.70;49.42;;;13.70;99.90;;;;;;5315447;26;19997;-77
2024/05/03 02:07:46;;;;;;;97.25;45.08;;;13.70;99.90;;;;;;5346123;26;19997;-77
2024/05/03 02:10:13;;;;;;;108.13;49.80;;;13.70;99.90;;;;;;5344381;26;20043;-77
2024/05/03 02:12:40;;;;;;;109.65;49.65;;;13.70;99.90;;;;;;5315458;26;20016;-77
2024/05/03 02:15:07;;;;;;;106.45;47.85;;;13.80;99.90;;;;;;5345816;26;20012;-77
2024/05/03 02:17:34;;;;;;;106.60;46.38;;;13.80;99.90;;;;;;5343647;26;20001;-77
2024/05/03 02:20:01;;;;;;;116.13;48.03;;;13.80;99.90;;;;;;5315374;26;20001;-77
2024/05/03 02:22:28;;;;;;;87.85;39.53;;;13.90;99.90;;;;;;5343468;26;20016;-77
2024/05/03 02:24:55;;;;;;;99.93;48.95;;;13.90;99.90;;;;;;5345571;26;20042;-77
2024/05/03 02:27:24;;;;;;;116.93;48.90;;;13.90;99.90;;;;;;5345167;26;20019;-76
2024/05/03 02:29:51;;;;;;;95.32;46.70;;;14.00;99.90;;;;;;5343712;26;20009;-77
2024/05/03 02:32:18;;;;;;;114.03;48.95;;;14.00;99.90;;;;;;5345483;26;20000;-77
2024/05/03 02:34:45;;;;;;;103.28;46.97;;;14.00;99.90;;;;;;5344044;26;20008;-77
2024/05/03 02:37:12;;;;;;;102.35;43.40;;;14.00;99.90;;;;;;5345465;26;20008;-77
2024/05/03 02:39:39;;;;;;;103.45;45.33;;;14.10;99.90;;;;;;5314959;26;20004;-77
2024/05/03 02:42:06;;;;;;;105.75;46.22;;;14.00;99.90;;;;;;5345352;26;20009;-77
2024/05/03 02:44:33;;;;;;;101.10;46.17;;;14.10;99.90;;;;;;5345117;26;20327;-77
2024/05/03 02:47:00;;;;;;;102.38;46.60;;;14.00;99.90;;;;;;5345279;26;19997;-76
2024/05/03 02:49:27;;;;;;;97.88;43.38;;;14.00;99.90;;;;;;5344864;26;19997;-77
2024/05/03 02:51:54;;;;;;;107.70;50.65;;;14.10;99.90;;;;;;5345151;26;20083;-77
2024/05/03 02:54:22;;;;;;;100.40;46.88;;;14.10;99.90;;;;;;5343071;26;20029;-77
2024/05/03 02:56:50;;;;;;;95.10;44.38;;;14.10;99.90;;;;;;5343225;26;20001;-77
2024/05/03 02:59:18;;;;;;;87.05;40.05;;;14.10;99.90;;;;;;5344930;26;20012;-77
2024/05/03 03:01:46;;;;;;;72.88;32.22;;;14.10;99.90;;;;;;5363165;26;20089;-77
2024/05/03 03:04:13;;;;;;;99.70;48.85;;;14.10;99.90;;;;;;5349549;26;20028;-77
2024/05/03 03:06:40;;;;;;;70.80;38.50;;;14.10;99.90;;;;;;5375401;26;20076;-77
2024/05/03 03:09:07;;;;;;;112.97;43.33;;;14.10;99.90;;;;;;5377816;26;20007;-77
2024/05/03 03:11:35;;;;;;;98.40;43.22;;;14.10;99.90;;;;;;5348732;26;20320;-77
2024/05/03 03:14:02;;;;;;;95.53;44.67;;;14.20;99.90;;;;;;5380071;26;20054;-77
2024/05/03 03:16:32;;;;;;;74.72;36.13;;;14.20;99.90;;;;;;5380381;26;19996;-77
2024/05/03 03:18:59;;;;;;;75.63;37.97;;;14.30;99.90;;;;;;5352434;26;19997;-77
2024/05/03 03:21:28;;;;;;;89.40;42.15;;;14.30;99.90;;;;;;5380900;26;20015;-77
2024/05/03 03:23:58;;;;;;;98.32;46.65;;;14.30;99.90;;;;;;5383471;26;20516;-77
2024/05/03 03:26:25;;;;;;;83.55;41.25;;;14.30;99.90;;;;;;5382866;26;19996;-77
2024/05/03 03:28:52;;;;;;;59.58;29.42;;;14.40;99.90;;;;;;5383339;26;20015;-77
2024/05/03 03:31:19;;;;;;;82.57;39.15;;;14.40;99.90;;;;;;5383124;26;20000;-77
2024/05/03 03:33:47;;;;;;;100.97;46.53;;;14.40;99.90;;;;;;5382620;26;20000;-77
2024/05/03 03:36:25;;;;;;;100.95;46.47;;;14.40;99.90;;;;;;5383035;26;20337;-77
2024/05/03 03:38:53;;;;;;;66.35;33.97;;;14.50;99.90;;;;;;5381137;26;20427;-77
2024/05/03 03:41:21;;;;;;;75.35;37.47;;;14.50;99.90;;;;;;5381405;26;20000;-77
2024/05/03 03:43:50;;;;;;;84.18;39.83;;;14.50;99.90;;;;;;5382543;26;20388;-77
2024/05/03 03:46:19;;;;;;;81.10;41.50;;;14.50;99.90;;;;;;5382837;26;20015;-77
2024/05/03 03:48:46;;;;;;;75.20;41.15;;;14.50;99.90;;;;;;5382327;26;20008;-77
2024/05/03 03:51:14;;;;;;;48.42;23.42;;;14.50;99.90;;;;;;5383131;26;20007;-76
2024/05/03 03:53:42;;;;;;;91.22;42.55;;;14.50;99.90;;;;;;5380871;26;20000;-77
2024/05/03 03:56:09;;;;;;;67.38;29.65;;;14.50;99.90;;;;;;5383034;26;20000;-77
2024/05/03 03:58:36;;;;;;;84.28;40.10;;;14.50;99.90;;;;;;5380877;26;19996;-77
2024/05/03 04:01:05;;;;;;;81.75;40.10;;;14.50;99.90;;;;;;5382907;26;19996;-77
2024/05/03 04:03:32;;;;;;;76.45;36.45;;;14.60;99.90;;;;;;5380691;26;20007;-77
2024/05/03 04:05:59;;;;;;;84.40;40.85;;;14.60;99.90;;;;;;5351912;26;20073;-77
2024/05/03 04:08:26;;;;;;;71.15;37.33;;;14.60;99.90;;;;;;5380874;26;20000;-77
2024/05/03 04:10:53;;;;;;;74.00;37.83;;;14.70;99.90;;;;;;5382257;26;19996;-77
2024/05/03 04:13:20;;;;;;;79.88;39.17;;;14.70;99.90;;;;;;5380786;26;20012;-77
2024/05/03 04:15:47;;;;;;;79.88;39.22;;;14.70;99.90;;;;;;5382079;26;20043;-77
2024/05/03 04:18:15;;;;;;;78.40;36.50;;;14.80;99.90;;;;;;5380559;26;20011;-77
2024/05/03 04:20:42;;;;;;;84.85;37.50;;;14.80;99.90;;;;;;5380386;26;20469;-77
2024/05/03 04:23:09;;;;;;;70.13;35.42;;;14.80;99.90;;;;;;5382281;26;20004;-77
2024/05/03 04:25:36;;;;;;;76.82;41.42;;;14.80;99.90;;;;;;5351428;26;20369;-77
2024/05/03 04:28:03;;;;;;;75.95;38.33;;;14.90;99.90;;;;;;5351146;26;20070;-77
2024/05/03 04:30:30;;;;;;;78.50;38.42;;;14.90;99.90;;;;;;5382511;26;20506;-77
2024/05/03 04:32:57;;;;;;;82.97;40.63;;;15.00;99.90;;;;;;5382543;26;20006;-77
2024/05/03 04:35:24;;;;;;;81.32;38.75;;;15.10;99.90;;;;;;5382580;26;19997;-77
2024/05/03 04:37:52;;;;;;;64.28;34.70;;;15.10;99.90;;;;;;5380234;26;20001;-76
2024/05/03 04:40:19;;;;;;;78.10;36.42;;;15.10;99.90;;;;;;5351807;26;19996;-77
2024/05/03 04:42:46;;;;;;;65.22;32.90;;;15.10;99.90;;;;;;5351336;26;19996;-77
2024/05/03 04:45:13;;;;;;;78.65;35.53;;;15.10;99.90;;;;;;5382068;26;20007;-77
2024/05/03 04:47:40;;;;;;;68.30;33.65;;;15.20;99.90;;;;;;5409262;26;20016;-77
2024/05/03 04:50:07;;;;;;;54.30;29.17;;;15.20;99.90;;;;;;5381897;26;20032;-77
2024/05/03 04:52:34;;;;;;;54.33;28.15;;;15.30;99.90;;;;;;5381993;26;20000;-76
2024/05/03 04:55:01;;;;;;;75.43;37.53;;;15.30;99.90;;;;;;5381836;26;20468;-76
2024/05/03 04:57:28;;;;;;;74.75;38.30;;;15.30;99.90;;;;;;5379987;26;20076;-77
2024/05/03 04:59:55;;;;;;;77.28;38.40;;;15.30;99.90;;;;;;5350702;26;20000;-76
2024/05/03 05:02:22;;;;;;;82.03;37.45;;;15.40;99.90;;;;;;5345232;26;20022;-76
2024/05/03 05:04:49;;;;;;;81.95;39.75;;;15.40;99.90;;;;;;5381171;26;20370;-77
2024/05/03 05:07:17;;;;;;;71.60;34.28;;;15.50;99.90;;;;;;5379711;26;20000;-77
2024/05/03 05:09:44;;;;;;;69.15;37.10;;;15.50;99.90;;;;;;5365245;26;20032;-77
2024/05/03 05:12:12;;;;;;;77.10;36.22;;;15.50;99.90;;;;;;5373788;26;20078;-77
2024/05/03 05:14:39;;;;;;;78.15;36.30;;;15.50;99.90;;;;;;5373744;26;20000;-77
2024/05/03 05:17:06;;;;;;;81.15;38.22;;;15.50;99.90;;;;;;5346327;26;20074;-77
2024/05/03 05:19:33;;;;;;;84.97;39.42;;;15.50;99.90;;;;;;5344767;26;20001;-77
2024/05/03 05:22:10;;;;;;;77.65;38.15;;;15.50;99.90;;;;;;5373742;26;20382;-77
2024/05/03 05:24:39;;;;;;;78.88;37.40;;;15.60;99.90;;;;;;5346957;26;20382;-77
2024/05/03 05:27:06;;;;;;;72.80;34.40;;;15.50;99.90;;;;;;5346449;26;20005;-77
2024/05/03 05:29:34;;;;;;;60.22;30.77;;;15.50;99.90;;;;;;5344559;26;20001;-76
2024/05/03 05:32:01;;;;;;;80.75;36.75;;;15.50;99.90;;;;;;5344436;26;20009;-77
2024/05/03 05:34:28;;;;;;;88.07;41.50;;;15.40;99.90;;;;;;5373524;26;20005;-77
2024/05/03 05:36:55;;;;;;;83.70;39.17;;;15.40;99.90;;;;;;5344271;26;20071;-77
2024/05/03 05:39:22;;;;;;;81.35;37.08;;;15.50;99.90;;;;;;5343415;26;20009;-77
2024/05/03 05:41:50;;;;;;;88.35;38.55;;;15.50;99.90;;;;;;5346044;26;20465;-77
2024/05/03 05:44:17;;;;;;;75.30;36.38;;;15.40;99.90;;;;;;5373544;26;20082;-77
2024/05/03 05:46:44;;;;;;;85.57;35.30;;;15.50;99.90;;;;;;5373448;26;20015;-77
2024/05/03 05:49:11;;;;;;;81.18;36.38;;;15.50;99.90;;;;;;5346175;26;19997;-77
2024/05/03 05:51:38;;;;;;;81.65;36.38;;;15.50;99.90;;;;;;5344770;26;20447;-76
2024/05/03 05:54:05;;;;;;;84.38;37.63;;;15.40;99.90;;;;;;5345876;26;20009;-77
2024/05/03 05:56:33;;;;;;;88.28;37.35;;;15.50;99.90;;;;;;5346315;26;20012;-77
2024/05/03 05:59:00;;;;;;;53.30;23.25;;;15.50;99.90;;;;;;5344168;26;20009;-77
2024/05/03 06:01:29;;;;;;;75.15;34.25;;;15.40;99.90;;;;;;5346282;26;20007;-77
2024/05/03 06:04:00;;;;;;;72.97;32.30;;;15.40;99.90;;;;;;5345823;26;20040;-75
2024/05/03 06:06:29;;;;;;;79.57;34.58;;;15.40;99.90;;;;;;5345967;26;20011;-75
2024/05/03 06:08:59;;;;;;;66.95;31.60;;;15.50;99.90;;;;;;5343765;26;20001;-75
2024/05/03 06:11:30;;;;;;;80.72;34.60;;;15.50;99.90;;;;;;5346971;26;20350;-75
2024/05/03 06:13:59;;;;;;;66.03;31.13;;;15.50;99.90;;;;;;5394189;26;20446;-75
2024/05/03 06:16:27;;;;;;;61.83;29.20;;;15.60;99.90;;;;;;5370208;26;20048;-75
2024/05/03 06:18:54;;;;;;;66.25;31.83;;;15.60;99.90;;;;;;5360448;26;20001;-75
2024/05/03 06:21:22;;;;;;;82.97;32.85;;;15.60;99.90;;;;;;5345554;26;20012;-75
2024/05/03 06:23:49;;;;;;;57.50;27.50;;;15.60;99.90;;;;;;5344842;26;20457;-75
2024/05/03 06:26:16;;;;;;;64.57;27.60;;;15.60;99.90;;;;;;5343696;26;20001;-75
2024/05/03 06:28:44;;;;;;;54.13;22.80;;;15.60;99.90;;;;;;5345655;26;20011;-75
2024/05/03 06:31:11;;;;;;;68.53;29.98;;;15.60;99.90;;;;;;5345497;26;20323;-75
2024/05/03 06:33:38;;;;;;;61.78;26.77;;;15.60;99.90;;;;;;5343752;26;19997;-75
2024/05/03 06:36:06;;;;;;;67.63;30.45;;;15.70;99.90;;;;;;5343487;26;20009;-75
2024/05/03 06:38:33;;;;;;;58.83;29.83;;;15.70;99.90;;;;;;5343929;26;20044;-75
2024/05/03 06:41:03;;;;;;;61.63;29.45;;;15.80;99.90;;;;;;5343430;26;20397;-75
2024/05/03 06:43:31;;;;;;;61.10;25.08;;;15.80;99.90;;;;;;5345558;26;20451;-75
2024/05/03 06:45:59;;;;;;;49.33;23.15;;;15.80;99.90;;;;;;5344633;26;20354;-75
2024/05/03 06:48:29;;;;;;;45.47;26.60;;;15.80;99.90;;;;;;5343318;26;20009;-75
2024/05/03 06:50:56;;;;;;;60.78;26.00;;;15.70;99.90;;;;;;5316891;26;20389;-75
2024/05/03 06:53:24;;;;;;;63.10;28.02;;;15.70;99.90;;;;;;5348331;26;20366;-75
2024/05/03 06:55:52;;;;;;;71.88;36.63;;;15.70;99.90;;;;;;5347019;26;20001;-75
2024/05/03 06:58:19;;;;;;;64.88;31.75;;;15.70;99.90;;;;;;5346899;26;20001;-75
2024/05/03 07:00:46;;;;;;;51.25;25.10;;;15.70;99.90;;;;;;5346757;26;20439;-75
2024/05/03 07:03:13;;;;;;;47.53;20.83;;;15.60;99.90;;;;;;5346415;26;20008;-75
2024/05/03 07:05:40;;;;;;;54.17;24.20;;;15.60;99.90;;;;;;5346593;26;20001;-75
2024/05/03 07:08:10;;;;;;;65.20;26.42;;;15.60;99.90;;;;;;5346641;26;19997;-75
2024/05/03 07:10:37;;;;;;;50.65;24.35;;;15.50;99.90;;;;;;5346518;26;20005;-75
2024/05/03 07:13:04;;;;;;;65.93;28.42;;;15.50;99.90;;;;;;5317773;26;20013;-75
2024/05/03 07:15:31;;;;;;;75.72;31.63;;;15.40;99.90;;;;;;5346750;26;20009;-75
2024/05/03 07:17:58;;;;;;;54.63;25.35;;;15.30;99.90;;;;;;5347709;26;20001;-75
2024/05/03 07:20:25;;;;;;;58.88;24.23;;;15.40;99.90;;;;;;5348290;26;20334;-75
2024/05/03 07:22:52;;;;;;;89.90;34.15;;;15.30;99.90;;;;;;5346355;26;20008;-76
2024/05/03 07:25:19;;;;;;;72.07;29.83;;;15.30;99.90;;;;;;5347764;26;20001;-76
2024/05/03 07:27:46;;;;;;;66.88;30.40;;;15.30;99.90;;;;;;5345920;26;20000;-75
2024/05/03 07:30:14;;;;;;;61.85;28.50;;;15.40;99.90;;;;;;5347393;26;20000;-75
2024/05/03 07:32:41;;;;;;;45.88;23.42;;;15.40;99.90;;;;;;5347717;26;20009;-75
2024/05/03 07:35:08;;;;;;;65.97;27.25;;;15.50;99.90;;;;;;5345941;26;20174;-75
2024/05/03 07:37:36;;;;;;;57.03;28.48;;;15.50;99.90;;;;;;5346170;26;20012;-76
2024/05/03 07:40:03;;;;;;;65.22;30.33;;;15.60;99.90;;;;;;5347407;26;20013;-75
2024/05/03 07:42:30;;;;;;;38.42;18.65;;;15.60;99.90;;;;;;5347801;26;20339;-75
2024/05/03 07:44:57;;;;;;;63.20;27.05;;;15.60;99.90;;;;;;5347836;26;20016;-75
2024/05/03 07:47:24;;;;;;;63.67;31.17;;;15.70;99.90;;;;;;5347810;26;20008;-75
2024/05/03 07:49:52;;;;;;;58.80;26.92;;;15.60;99.90;;;;;;5346082;26;19997;-75
2024/05/03 07:52:19;;;;;;;63.58;31.50;;;15.60;99.90;;;;;;5288985;26;20516;-75
2024/05/03 07:54:46;;;;;;;55.30;26.33;;;15.60;99.90;;;;;;5317455;26;20001;-76
2024/05/03 07:57:13;;;;;;;55.08;28.00;;;15.60;99.90;;;;;;5346051;26;20000;-75
2024/05/03 07:59:40;;;;;;;47.03;26.55;;;15.70;99.90;;;;;;5317695;26;19997;-75
2024/05/03 08:02:08;;;;;;;55.58;28.77;;;15.60;99.90;;;;;;5345394;26;20008;-75
2024/05/03 08:04:35;;;;;;;68.55;34.03;;;15.50;99.90;;;;;;5345854;26;20009;-75
2024/05/03 08:07:02;;;;;;;35.20;18.92;;;15.40;99.90;;;;;;5374910;26;20016;-75
2024/05/03 08:09:33;;;;;;;53.50;28.00;;;15.30;99.90;;;;;;5347478;26;20354;-75
2024/05/03 08:12:01;;;;;;;50.03;23.15;;;15.30;99.90;;;;;;5345492;26;20012;-75
2024/05/03 08:14:29;;;;;;;47.45;23.27;;;15.40;99.90;;;;;;5345774;26;20079;-75
2024/05/03 08:16:56;;;;;;;56.75;31.35;;;15.40;99.90;;;;;;5347372;26;20001;-75
2024/05/03 08:19:23;;;;;;;41.20;21.90;;;15.40;99.90;;;;;;5345344;26;20016;-75
2024/05/03 08:21:53;;;;;;;50.00;27.55;;;15.50;99.90;;;;;;5345712;26;20016;-75
2024/05/03 08:24:20;;;;;;;43.08;24.90;;;15.50;99.90;;;;;;5345053;26;20000;-75
2024/05/03 08:26:47;;;;;;;51.95;29.17;;;15.60;99.90;;;;;;5370460;26;20355;-75
2024/05/03 08:29:14;;;;;;;52.00;26.38;;;15.80;99.90;;;;;;5378213;26;20395;-75
2024/05/03 08:31:41;;;;;;;31.65;18.55;;;15.90;99.90;;;;;;5380544;26;20007;-75
2024/05/03 08:34:12;;;;;;;41.25;24.05;;;16.00;99.90;;;;;;5381677;26;20028;-75
2024/05/03 08:36:39;;;;;;;47.47;23.70;;;16.00;99.90;;;;;;5380204;26;20008;-75
2024/05/03 08:39:06;;;;;;;50.88;28.98;;;16.00;99.90;;;;;;5380767;26;20020;-75
2024/05/03 08:42:06;;;;;;;48.03;24.38;;;16.00;99.90;;;;;;5382193;26;20008;-75
2024/05/03 08:44:35;;;;;;;41.53;21.67;;;16.00;99.90;;;;;;5378785;26;20004;-75
2024/05/03 08:47:06;;;;;;;47.22;27.40;;;16.00;99.90;;;;;;5380132;26;20074;-75
2024/05/03 08:49:40;;;;;;;34.78;21.08;;;15.90;99.90;;;;;;5381777;26;20004;-75
2024/05/03 08:52:12;;;;;;;41.78;24.20;;;15.90;99.90;;;;;;5382089;26;20004;-75
2024/05/03 08:54:41;;;;;;;35.42;19.15;;;15.80;99.90;;;;;;5381753;26;20000;-75
2024/05/03 08:57:08;;;;;;;39.33;25.92;;;15.80;99.90;;;;;;5380080;26;20000;-75
2024/05/03 08:59:35;;;;;;;41.70;25.23;;;15.70;99.90;;;;;;5380008;26;20004;-75
2024/05/03 09:02:03;;;;;;;38.15;22.60;;;15.70;99.90;;;;;;5379920;26;20015;-75
2024/05/03 09:04:31;;;;;;;31.42;20.83;;;15.70;99.90;;;;;;5381203;26;20000;-75
2024/05/03 09:07:02;;;;;;;28.45;18.40;;;15.70;99.90;;;;;;5408668;26;20007;-75
2024/05/03 09:09:47;;;;;;;26.33;18.10;;;15.80;99.90;;;;;;5408779;26;20012;-75
2024/05/03 09:12:14;;;;;;;28.65;17.38;;;15.70;99.90;;;;;;5379245;26;19996;-75
2024/05/03 09:14:41;;;;;;;26.02;17.52;;;15.70;99.90;;;;;;5381059;26;20000;-75
2024/05/03 09:17:10;;;;;;;26.52;12.55;;;15.70;99.90;;;;;;5380112;26;20008;-75
2024/05/03 09:19:38;;;;;;;18.13;11.85;;;15.70;99.90;;;;;;5381475;26;19996;-75
2024/05/03 09:22:06;;;;;;;14.93;12.50;;;15.80;99.90;;;;;;5381494;26;20413;-75
2024/05/03 09:24:33;;;;;;;13.35;10.38;;;15.80;99.90;;;;;;5408761;26;20000;-75
2024/05/03 09:27:00;;;;;;;14.55;9.45;;;15.80;99.90;;;;;;5409093;26;20321;-76
2024/05/03 09:29:30;;;;;;;9.20;7.85;;;15.90;99.90;;;;;;5380826;26;20015;-75
2024/05/03 09:31:57;;;;;;;8.95;7.05;;;15.90;99.90;;;;;;5381235;26;20004;-75
2024/05/03 09:34:24;;;;;;;7.95;5.25;;;15.90;99.90;;;;;;5379182;26;20019;-75
2024/05/03 09:36:55;;;;;;;7.20;6.32;;;15.90;99.90;;;;;;5381286;26;20000;-75
2024/05/03 09:39:22;;;;;;;9.82;8.23;;;16.00;99.90;;;;;;5380860;26;20000;-75
2024/05/03 09:41:49;;;;;;;10.48;6.97;;;16.00;99.90;;;;;;5379330;26;20000;-75
2024/05/03 09:44:16;;;;;;;6.95;6.25;;;16.10;99.90;;;;;;5350430;26;20461;-75
2024/05/03 09:46:45;;;;;;;6.68;4.90;;;16.30;99.90;;;;;;5379334;26;19992;-75
2024/05/03 09:49:24;;;;;;;11.43;8.18;;;16.50;99.90;;;;;;5381333;26;20000;-75
2024/05/03 09:52:00;;;;;;;10.38;8.60;;;16.80;99.90;;;;;;5381307;26;20011;-75
2024/05/03 09:54:46;;;;;;;10.52;9.43;;;17.00;99.90;;;;;;5379418;26;20330;-75
2024/05/03 09:57:21;;;;;;;10.00;8.50;;;17.00;99.90;;;;;;5381201;26;20326;-75
2024/05/03 09:59:50;;;;;;;7.43;5.55;;;16.80;99.90;;;;;;5381287;26;20008;-75
2024/05/03 10:02:26;;;;;;;8.05;5.80;;;16.70;99.90;;;;;;5378966;26;20001;-75
2024/05/03 10:04:54;;;;;;;6.07;4.32;;;16.60;99.90;;;;;;5380819;26;20461;-75
2024/05/03 10:07:21;;;;;;;5.55;4.28;;;16.60;99.90;;;;;;5378934;26;20000;-75
2024/05/03 10:09:50;;;;;;;9.57;4.90;;;16.50;99.90;;;;;;5380544;26;20074;-74
2024/05/03 10:12:19;;;;;;;6.78;4.82;;;16.50;99.90;;;;;;5378792;26;20330;-75
2024/05/03 10:14:47;;;;;;;8.30;6.50;;;16.40;99.90;;;;;;5380600;26;20000;-75
2024/05/03 10:17:16;;;;;;;8.38;5.78;;;16.30;99.90;;;;;;5378832;26;20001;-74
2024/05/03 10:19:45;;;;;;;9.68;7.93;;;16.20;99.90;;;;;;5378542;26;20008;-75
2024/05/03 10:22:12;;;;;;;9.60;6.60;;;16.00;99.90;;;;;;5350320;26;20004;-74
2024/05/03 10:24:39;;;;;;;6.53;4.57;;;15.70;99.90;;;;;;5381552;26;19996;-77
2024/05/03 10:27:07;;;;;;;3.70;3.25;;;15.40;99.90;;;;;;5384064;26;20000;-77
2024/05/03 10:29:47;;;;;;;5.88;4.57;;;15.20;99.90;;;;;;5355277;26;20035;-77
2024/05/03 10:32:30;;;;;;;5.82;5.22;;;15.20;99.90;;;;;;5381606;26;20383;-76
2024/05/03 10:35:01;;;;;;;6.90;5.55;;;15.20;99.90;;;;;;5382279;26;20352;-77
2024/05/03 10:37:36;;;;;;;4.88;3.38;;;15.20;99.90;;;;;;5352501;26;20069;-78
2024/05/03 10:40:04;;;;;;;5.30;4.32;;;15.30;99.90;;;;;;5382693;26;20453;-78
2024/05/03 10:42:31;;;;;;;5.20;4.32;;;15.40;99.90;;;;;;5380338;26;20000;-78
2024/05/03 10:44:59;;;;;;;5.30;4.05;;;15.40;99.90;;;;;;5383139;26;20004;-77
2024/05/03 10:47:26;;;;;;;4.22;3.72;;;15.40;99.90;;;;;;5381655;26;20449;-77
2024/05/03 10:49:53;;;;;;;7.47;5.38;;;15.30;99.90;;;;;;5381939;26;20008;-78
2024/05/03 10:52:20;;;;;;;4.50;4.00;;;15.30;99.90;;;;;;5352769;26;20000;-77
2024/05/03 10:54:48;;;;;;;4.95;3.10;;;15.30;99.90;;;;;;5381428;26;20008;-78
2024/05/03 10:57:15;;;;;;;3.72;3.40;;;15.30;99.90;;;;;;5381864;26;20004;-77
2024/05/03 10:59:49;;;;;;;4.65;3.22;;;15.30;99.90;;;;;;5383066;26;20000;-78
2024/05/03 11:02:16;;;;;;;4.32;3.10;;;15.40;99.90;;;;;;5383727;26;20069;-77
2024/05/03 11:04:43;;;;;;;4.07;3.67;;;15.40;99.90;;;;;;5383162;26;20322;-77
2024/05/03 11:07:11;;;;;;;4.05;3.70;;;15.50;99.90;;;;;;5353041;26;19997;-77
2024/05/03 11:09:38;;;;;;;2.78;2.00;;;15.50;99.90;;;;;;5381235;26;20000;-77
2024/05/03 11:12:07;;;;;;;2.70;2.40;;;15.60;99.90;;;;;;5324030;26;20000;-77
2024/05/03 11:14:34;;;;;;;2.47;2.28;;;15.60;99.90;;;;;;5382995;26;20022;-77
2024/05/03 11:17:02;;;;;;;2.33;2.13;;;15.60;99.90;;;;;;5381838;26;20495;-77
2024/05/03 11:19:29;;;;;;;3.97;2.97;;;15.50;99.90;;;;;;5381841;26;20393;-77
2024/05/03 11:21:58;;;;;;;3.25;2.95;;;15.40;99.90;;;;;;5383094;26;20460;-77
2024/05/03 11:24:27;;;;;;;3.75;2.80;;;15.40;99.90;;;;;;5381494;26;20000;-77
2024/05/03 11:27:04;;;;;;;2.95;1.85;;;15.30;99.90;;;;;;5382844;26;20015;-77
2024/05/03 11:29:33;;;;;;;2.92;2.72;;;15.30;99.90;;;;;;5381101;26;20415;-77
2024/05/03 11:32:01;;;;;;;4.70;3.15;;;15.20;99.90;;;;;;5382967;26;20353;-77
2024/05/03 11:34:32;;;;;;;3.33;3.03;;;15.20;99.90;;;;;;5383068;26;20004;-77
2024/05/03 11:37:04;;;;;;;4.28;3.88;;;15.10;99.90;;;;;;5382015;26;20011;-77
2024/05/03 11:39:32;;;;;;;2.28;1.77;;;15.10;99.90;;;;;;5382900;26;20073;-77
2024/05/03 11:41:59;;;;;;;3.42;2.92;;;15.10;99.90;;;;;;5382838;26;20011;-77
2024/05/03 11:44:26;;;;;;;2.97;2.67;;;15.10;99.90;;;;;;5381415;26;20003;-77
2024/05/03 11:46:53;;;;;;;3.20;3.00;;;15.20;99.90;;;;;;5382899;26;20000;-77
2024/05/03 11:49:20;;;;;;;1.95;1.48;;;15.30;99.90;;;;;;5382694;26;20074;-77
2024/05/03 11:51:48;;;;;;;3.60;3.30;;;15.40;99.90;;;;;;5380960;26;20000;-77
2024/05/03 11:54:16;;;;;;;3.08;2.58;;;15.50;99.90;;;;;;5382866;26;20464;-77
2024/05/03 11:56:44;;;;;;;2.20;2.00;;;15.60;99.90;;;;;;5380963;26;20032;-77
2024/05/03 11:59:11;;;;;;;2.35;2.20;;;15.80;99.90;;;;;;5383074;26;19996;-77
2024/05/03 12:01:38;;;;;;;4.70;4.30;;;15.80;99.90;;;;;;5380471;26;20024;-77
2024/05/03 12:04:05;;;;;;;4.07;3.67;;;15.80;99.90;;;;;;5382632;26;20326;-78
2024/05/03 12:06:32;;;;;;;4.63;3.03;;;15.60;99.90;;;;;;5382487;26;20077;-77
2024/05/03 12:08:59;;;;;;;4.22;3.38;;;15.40;99.90;;;;;;5351626;26;20353;-77
2024/05/03 12:11:27;;;;;;;4.97;3.40;;;15.30;99.90;;;;;;5382403;26;20008;-77
2024/05/03 12:13:57;;;;;;;3.72;3.08;;;15.20;99.90;;;;;;5352536;26;20004;-77
2024/05/03 12:16:24;;;;;;;3.30;2.72;;;15.00;99.90;;;;;;5323247;26;20000;-77
2024/05/03 12:18:51;;;;;;;4.75;3.50;;;14.90;99.90;;;;;;5382091;26;20004;-77
2024/05/03 12:21:18;;;;;;;5.03;3.38;;;14.90;99.90;;;;;;5351718;26;20411;-77
2024/05/03 12:23:46;;;;;;;3.55;3.25;;;14.80;99.90;;;;;;5351984;26;20068;-77
2024/05/03 12:26:17;;;;;;;4.00;3.45;;;14.80;99.90;;;;;;5382744;26;20015;-77
2024/05/03 12:28:44;;;;;;;6.95;4.47;;;14.70;99.90;;;;;;5380502;26;20004;-77
2024/05/03 12:31:12;;;;;;;5.50;4.38;;;14.60;99.90;;;;;;5380428;26;20014;-77
2024/05/03 12:33:39;;;;;;;4.32;3.25;;;14.50;99.90;;;;;;5382429;26;20387;-77
2024/05/03 12:36:07;;;;;;;5.00;4.60;;;14.40;99.90;;;;;;5380638;26;20004;-77